createdAt,value
2017-10-09T00:00:29.116Z,1019.5
2017-10-09T00:01:30.955Z,1019.5
2017-10-09T00:02:32.877Z,1019.5
2017-10-09T00:03:34.698Z,1019.5
2017-10-09T00:04:36.556Z,1019.5
2017-10-09T00:05:38.457Z,1019.5
2017-10-09T00:06:40.321Z,1019.5
2017-10-09T00:07:42.152Z,1019.5
2017-10-09T00:08:44.018Z,1019.5
2017-10-09T00:09:45.864Z,1019.5
2017-10-09T00:10:47.716Z,1019.5
2017-10-09T00:11:49.608Z,1019.5
2017-10-09T00:12:51.433Z,1019.5
2017-10-09T00:13:53.242Z,1019.5
2017-10-09T00:14:55.397Z,1019.5
2017-10-09T00:15:57.207Z,1019.5
2017-10-09T00:16:59.978Z,1019.5
2017-10-09T00:18:01.822Z,1019.5
2017-10-09T00:19:03.648Z,1019.6
2017-10-09T00:20:05.486Z,1019.6
2017-10-09T00:21:07.340Z,1019.5
2017-10-09T00:22:09.177Z,1019.6
2017-10-09T00:23:10.994Z,1019.5
2017-10-09T00:24:12.841Z,1019.5
2017-10-09T00:25:14.687Z,1019.6
2017-10-09T00:26:16.626Z,1019.6
2017-10-09T00:27:18.998Z,1019.5
2017-10-09T00:28:20.923Z,1019.6
2017-10-09T00:29:22.708Z,1019.5
2017-10-09T00:30:24.549Z,1019.5
2017-10-09T00:31:26.355Z,1019.5
2017-10-09T00:32:28.217Z,1019.5
2017-10-09T00:33:30.076Z,1019.5
2017-10-09T00:34:31.892Z,1019.5
2017-10-09T00:35:33.798Z,1019.5
2017-10-09T00:36:35.713Z,1019.5
2017-10-09T00:37:37.559Z,1019.5
2017-10-09T00:38:39.403Z,1019.5
2017-10-09T00:39:41.265Z,1019.5
2017-10-09T00:40:43.114Z,1019.5
2017-10-09T00:41:44.984Z,1019.5
2017-10-09T00:42:46.779Z,1019.5
2017-10-09T00:43:48.673Z,1019.5
2017-10-09T00:44:50.518Z,1019.5
2017-10-09T00:45:52.398Z,1019.4
2017-10-09T00:46:54.228Z,1019.5
2017-10-09T00:47:56.077Z,1019.4
2017-10-09T00:48:57.968Z,1019.4
2017-10-09T00:49:59.797Z,1019.4
2017-10-09T00:51:01.625Z,1019.4
2017-10-09T00:52:03.576Z,1019.4
2017-10-09T00:53:05.424Z,1019.4
2017-10-09T00:54:07.335Z,1019.4
2017-10-09T00:55:09.186Z,1019.4
2017-10-09T00:56:11.067Z,1019.4
2017-10-09T00:57:12.944Z,1019.4
2017-10-09T00:58:14.844Z,1019.4
2017-10-09T00:59:16.729Z,1019.4
2017-10-09T01:00:18.560Z,1019.4
2017-10-09T01:01:20.403Z,1019.4
2017-10-09T01:02:22.246Z,1019.4
2017-10-09T01:03:24.083Z,1019.4
2017-10-09T01:04:26.002Z,1019.4
2017-10-09T01:05:27.819Z,1019.4
2017-10-09T01:06:29.580Z,1019.4
2017-10-09T01:07:31.377Z,1019.4
2017-10-09T01:08:33.193Z,1019.4
2017-10-09T01:09:35.030Z,1019.4
2017-10-09T01:10:36.867Z,1019.4
2017-10-09T01:11:38.650Z,1019.4
2017-10-09T01:12:40.484Z,1019.4
2017-10-09T01:13:42.334Z,1019.4
2017-10-09T01:14:44.202Z,1019.4
2017-10-09T01:15:46.068Z,1019.5
2017-10-09T01:16:47.889Z,1019.5
2017-10-09T01:17:49.691Z,1019.5
2017-10-09T01:18:52.507Z,1019.4
2017-10-09T01:19:54.380Z,1019.4
2017-10-09T01:20:56.200Z,1019.4
2017-10-09T01:21:58.077Z,1019.4
2017-10-09T01:22:59.901Z,1019.4
2017-10-09T01:24:01.779Z,1019.4
2017-10-09T01:25:03.681Z,1019.4
2017-10-09T01:26:05.453Z,1019.4
2017-10-09T01:27:07.304Z,1019.4
2017-10-09T01:28:09.154Z,1019.4
2017-10-09T01:29:11.944Z,1019.4
2017-10-09T01:30:13.788Z,1019.3
2017-10-09T01:31:15.616Z,1019.3
2017-10-09T01:32:17.398Z,1019.3
2017-10-09T01:33:19.273Z,1019.3
2017-10-09T01:34:21.092Z,1019.3
2017-10-09T01:35:22.908Z,1019.3
2017-10-09T01:36:24.692Z,1019.3
2017-10-09T01:37:26.512Z,1019.3
2017-10-09T01:38:28.443Z,1019.3
2017-10-09T01:39:30.296Z,1019.3
2017-10-09T01:40:32.359Z,1019.3
2017-10-09T01:41:34.216Z,1019.3
2017-10-09T01:42:36.061Z,1019.3
2017-10-09T01:43:37.921Z,1019.3
2017-10-09T01:44:39.744Z,1019.2
2017-10-09T01:45:41.545Z,1019.2
2017-10-09T01:46:43.424Z,1019.2
2017-10-09T01:47:45.343Z,1019.3
2017-10-09T01:48:47.144Z,1019.3
2017-10-09T01:49:49.057Z,1019.3
2017-10-09T01:50:50.917Z,1019.3
2017-10-09T01:51:52.798Z,1019.2
2017-10-09T01:52:54.690Z,1019.3
2017-10-09T01:53:56.535Z,1019.3
2017-10-09T01:54:58.496Z,1019.3
2017-10-09T01:56:00.405Z,1019.2
2017-10-09T01:57:02.308Z,1019.2
2017-10-09T01:58:04.273Z,1019.3
2017-10-09T01:59:06.227Z,1019.2
2017-10-09T02:00:08.188Z,1019.2
2017-10-09T02:01:09.996Z,1019.3
2017-10-09T02:02:11.854Z,1019.2
2017-10-09T02:03:13.727Z,1019.2
2017-10-09T02:04:15.552Z,1019.2
2017-10-09T02:05:17.711Z,1019.2
2017-10-09T02:06:19.582Z,1019.2
2017-10-09T02:07:21.450Z,1019.2
2017-10-09T02:08:23.299Z,1019.2
2017-10-09T02:09:25.136Z,1019.2
2017-10-09T02:10:27.029Z,1019.3
2017-10-09T02:11:28.909Z,1019.3
2017-10-09T02:12:30.683Z,1019.3
2017-10-09T02:13:32.501Z,1019.2
2017-10-09T02:14:34.300Z,1019.2
2017-10-09T02:15:36.165Z,1019.3
2017-10-09T02:16:37.974Z,1019.3
2017-10-09T02:17:39.786Z,1019.3
2017-10-09T02:18:41.593Z,1019.3
2017-10-09T02:19:43.481Z,1019.3
2017-10-09T02:20:45.326Z,1019.2
2017-10-09T02:21:47.256Z,1019.3
2017-10-09T02:22:49.129Z,1019.3
2017-10-09T02:23:51.059Z,1019.2
2017-10-09T02:24:53.005Z,1019.3
2017-10-09T02:25:54.926Z,1019.2
2017-10-09T02:26:56.883Z,1019.2
2017-10-09T02:27:58.748Z,1019.2
2017-10-09T02:29:00.611Z,1019.3
2017-10-09T02:30:02.509Z,1019.3
2017-10-09T02:31:04.415Z,1019.2
2017-10-09T02:32:06.258Z,1019.2
2017-10-09T02:33:08.119Z,1019.2
2017-10-09T02:34:09.937Z,1019.2
2017-10-09T02:35:11.788Z,1019.2
2017-10-09T02:36:13.671Z,1019.2
2017-10-09T02:37:15.447Z,1019.2
2017-10-09T02:38:17.286Z,1019.2
2017-10-09T02:39:19.182Z,1019.2
2017-10-09T02:40:20.989Z,1019.2
2017-10-09T02:41:22.806Z,1019.2
2017-10-09T02:42:24.688Z,1019.2
2017-10-09T02:43:26.603Z,1019.2
2017-10-09T02:44:28.452Z,1019.2
2017-10-09T02:45:30.231Z,1019.1
2017-10-09T02:46:32.176Z,1019.2
2017-10-09T02:47:34.099Z,1019.1
2017-10-09T02:48:35.949Z,1019.2
2017-10-09T02:49:37.902Z,1019.1
2017-10-09T02:50:39.756Z,1019.2
2017-10-09T02:51:41.598Z,1019.1
2017-10-09T02:52:43.462Z,1019.2
2017-10-09T02:53:45.389Z,1019.2
2017-10-09T02:54:47.224Z,1019.2
2017-10-09T02:55:49.086Z,1019.2
2017-10-09T02:56:50.994Z,1019.2
2017-10-09T02:57:52.970Z,1019.2
2017-10-09T02:58:54.980Z,1019.2
2017-10-09T02:59:56.881Z,1019.2
2017-10-09T03:00:58.738Z,1019.3
2017-10-09T03:02:00.653Z,1019.3
2017-10-09T03:03:02.531Z,1019.3
2017-10-09T03:04:04.382Z,1019.2
2017-10-09T03:05:06.222Z,1019.3
2017-10-09T03:06:08.164Z,1019.3
2017-10-09T03:07:10.001Z,1019.3
2017-10-09T03:08:11.857Z,1019.3
2017-10-09T03:09:13.691Z,1019.3
2017-10-09T03:10:15.546Z,1019.3
2017-10-09T03:11:17.489Z,1019.2
2017-10-09T03:12:19.415Z,1019.3
2017-10-09T03:13:21.364Z,1019.2
2017-10-09T03:14:23.260Z,1019.2
2017-10-09T03:15:25.079Z,1019.2
2017-10-09T03:16:26.938Z,1019.2
2017-10-09T03:17:28.848Z,1019.2
2017-10-09T03:18:30.811Z,1019.2
2017-10-09T03:19:32.781Z,1019.2
2017-10-09T03:20:34.742Z,1019.1
2017-10-09T03:21:36.682Z,1019.2
2017-10-09T03:22:38.701Z,1019.1
2017-10-09T03:23:40.564Z,1019.1
2017-10-09T03:24:42.637Z,1019.2
2017-10-09T03:25:44.583Z,1019.1
2017-10-09T03:26:46.515Z,1019.2
2017-10-09T03:27:48.427Z,1019.2
2017-10-09T03:28:50.328Z,1019.1
2017-10-09T03:29:52.388Z,1019.1
2017-10-09T03:30:54.217Z,1019.1
2017-10-09T03:31:56.245Z,1019.1
2017-10-09T03:32:58.163Z,1019.1
2017-10-09T03:34:00.073Z,1019.1
2017-10-09T03:35:01.969Z,1019.1
2017-10-09T03:36:03.912Z,1019.1
2017-10-09T03:37:05.775Z,1019.1
2017-10-09T03:38:07.899Z,1019.1
2017-10-09T03:39:10.160Z,1019.1
2017-10-09T03:40:12.081Z,1019.1
2017-10-09T03:41:14.127Z,1019.0
2017-10-09T03:42:16.017Z,1019.1
2017-10-09T03:43:17.904Z,1019.0
2017-10-09T03:44:19.775Z,1019.0
2017-10-09T03:45:21.712Z,1019.0
2017-10-09T03:46:23.509Z,1019.0
2017-10-09T03:47:25.382Z,1019.0
2017-10-09T03:48:27.282Z,1019.0
2017-10-09T03:49:29.070Z,1019.0
2017-10-09T03:50:30.924Z,1019.0
2017-10-09T03:51:34.292Z,1019.0
2017-10-09T03:52:36.101Z,1019.0
2017-10-09T03:53:37.866Z,1019.0
2017-10-09T03:54:39.746Z,1019.0
2017-10-09T03:55:41.539Z,1019.0
2017-10-09T03:56:43.423Z,1019.1
2017-10-09T03:57:45.226Z,1019.1
2017-10-09T03:58:46.995Z,1019.1
2017-10-09T03:59:48.848Z,1019.1
2017-10-09T04:00:50.693Z,1019.1
2017-10-09T04:01:53.521Z,1019.1
2017-10-09T04:02:55.283Z,1019.1
2017-10-09T04:03:57.160Z,1019.1
2017-10-09T04:04:59.189Z,1019.0
2017-10-09T04:06:01.021Z,1019.0
2017-10-09T04:07:02.854Z,1019.0
2017-10-09T04:08:04.812Z,1019.1
2017-10-09T04:09:06.722Z,1019.0
2017-10-09T04:10:08.664Z,1019.0
2017-10-09T04:11:10.846Z,1019.0
2017-10-09T04:12:12.474Z,1019.0
2017-10-09T04:13:13.938Z,1019.0
2017-10-09T04:14:15.560Z,1019.0
2017-10-09T04:15:17.118Z,1019.0
2017-10-09T04:16:18.730Z,1019.0
2017-10-09T04:17:20.268Z,1019.0
2017-10-09T04:18:22.325Z,1019.1
2017-10-09T04:19:23.968Z,1019.1
2017-10-09T04:20:25.450Z,1019.1
2017-10-09T04:21:27.056Z,1019.1
2017-10-09T04:22:28.557Z,1019.1
2017-10-09T04:23:30.123Z,1019.1
2017-10-09T04:24:31.607Z,1019.1
2017-10-09T04:25:33.104Z,1019.1
2017-10-09T04:26:34.647Z,1019.1
2017-10-09T04:27:36.196Z,1019.1
2017-10-09T04:28:37.710Z,1019.1
2017-10-09T04:29:39.249Z,1019.1
2017-10-09T04:30:40.758Z,1019.1
2017-10-09T04:31:42.251Z,1019.1
2017-10-09T04:32:43.726Z,1019.1
2017-10-09T04:33:45.228Z,1019.1
2017-10-09T04:34:46.670Z,1019.1
2017-10-09T04:35:48.154Z,1019.1
2017-10-09T04:36:49.611Z,1019.1
2017-10-09T04:37:51.076Z,1019.1
2017-10-09T04:38:52.601Z,1019.1
2017-10-09T04:39:54.083Z,1019.1
2017-10-09T04:40:55.552Z,1019.1
2017-10-09T04:41:56.987Z,1019.0
2017-10-09T04:42:58.466Z,1019.1
2017-10-09T04:43:59.934Z,1019.0
2017-10-09T04:45:01.421Z,1019.0
2017-10-09T04:46:02.911Z,1019.0
2017-10-09T04:47:04.417Z,1019.0
2017-10-09T04:48:05.931Z,1019.0
2017-10-09T04:49:07.385Z,1019.0
2017-10-09T04:50:09.052Z,1019.0
2017-10-09T04:51:10.948Z,1019.0
2017-10-09T04:52:12.308Z,1019.0
2017-10-09T04:53:13.844Z,1019.0
2017-10-09T04:54:16.175Z,1019.0
2017-10-09T04:55:17.692Z,1019.0
2017-10-09T04:56:19.470Z,1018.9
2017-10-09T04:57:20.939Z,1018.9
2017-10-09T04:58:22.470Z,1018.9
2017-10-09T04:59:23.980Z,1018.9
2017-10-09T05:00:25.531Z,1019.0
2017-10-09T05:01:26.999Z,1018.9
2017-10-09T05:02:28.529Z,1018.9
2017-10-09T05:03:30.119Z,1018.9
2017-10-09T05:04:31.665Z,1019.0
2017-10-09T05:05:33.177Z,1019.0
2017-10-09T05:06:34.713Z,1019.0
2017-10-09T05:07:36.214Z,1019.0
2017-10-09T05:08:37.747Z,1019.0
2017-10-09T05:09:39.287Z,1019.0
2017-10-09T05:10:40.788Z,1019.0
2017-10-09T05:11:42.585Z,1019.0
2017-10-09T05:12:44.410Z,1019.0
2017-10-09T05:13:45.965Z,1019.1
2017-10-09T05:14:47.519Z,1019.0
2017-10-09T05:15:49.103Z,1019.0
2017-10-09T05:16:50.639Z,1019.0
2017-10-09T05:17:52.165Z,1019.0
2017-10-09T05:18:53.945Z,1019.0
2017-10-09T05:19:55.482Z,1019.0
2017-10-09T05:20:57.041Z,1019.0
2017-10-09T05:21:58.713Z,1018.9
2017-10-09T05:23:00.613Z,1018.9
2017-10-09T05:24:02.484Z,1018.9
2017-10-09T05:25:04.341Z,1018.9
2017-10-09T05:26:06.141Z,1018.9
2017-10-09T05:27:08.051Z,1018.9
2017-10-09T05:28:09.897Z,1018.9
2017-10-09T05:29:11.505Z,1018.9
2017-10-09T05:30:13.449Z,1018.9
2017-10-09T05:31:15.527Z,1018.9
2017-10-09T05:32:17.511Z,1018.9
2017-10-09T05:33:19.141Z,1018.8
2017-10-09T05:34:20.803Z,1018.9
2017-10-09T05:35:22.409Z,1018.9
2017-10-09T05:36:23.971Z,1018.9
2017-10-09T05:37:25.599Z,1018.9
2017-10-09T05:38:27.250Z,1018.8
2017-10-09T05:39:28.896Z,1018.9
2017-10-09T05:40:30.615Z,1018.9
2017-10-09T05:41:32.303Z,1018.9
2017-10-09T05:42:34.035Z,1018.9
2017-10-09T05:43:36.063Z,1018.8
2017-10-09T05:44:38.162Z,1018.9
2017-10-09T05:45:40.136Z,1018.9
2017-10-09T05:46:42.110Z,1018.8
2017-10-09T05:47:43.909Z,1018.8
2017-10-09T05:48:45.421Z,1018.9
2017-10-09T05:49:46.995Z,1018.9
2017-10-09T05:50:48.563Z,1018.9
2017-10-09T05:51:50.061Z,1018.9
2017-10-09T05:52:51.602Z,1018.9
2017-10-09T05:53:53.160Z,1018.9
2017-10-09T05:54:54.640Z,1018.9
2017-10-09T05:55:56.143Z,1018.9
2017-10-09T05:56:57.629Z,1018.9
2017-10-09T05:57:59.188Z,1019.0
2017-10-09T05:59:00.755Z,1018.9
2017-10-09T06:00:02.383Z,1019.0
2017-10-09T06:01:03.890Z,1019.0
2017-10-09T06:02:05.568Z,1019.0
2017-10-09T06:03:07.012Z,1019.0
2017-10-09T06:04:09.206Z,1019.0
2017-10-09T06:05:10.697Z,1019.0
2017-10-09T06:06:12.147Z,1019.0
2017-10-09T06:07:13.623Z,1019.0
2017-10-09T06:08:15.110Z,1019.0
2017-10-09T06:09:16.582Z,1019.0
2017-10-09T06:10:18.070Z,1019.0
2017-10-09T06:11:19.553Z,1019.0
2017-10-09T06:12:21.028Z,1019.0
2017-10-09T06:13:22.492Z,1019.0
2017-10-09T06:14:23.989Z,1019.0
2017-10-09T06:15:25.430Z,1019.0
2017-10-09T06:16:26.889Z,1019.0
2017-10-09T06:17:28.356Z,1019.0
2017-10-09T06:18:29.857Z,1019.0
2017-10-09T06:19:31.350Z,1019.0
2017-10-09T06:20:32.836Z,1019.0
2017-10-09T06:21:34.333Z,1018.9
2017-10-09T06:22:35.801Z,1018.9
2017-10-09T06:23:37.269Z,1019.0
2017-10-09T06:24:38.762Z,1018.9
2017-10-09T06:25:40.216Z,1018.9
2017-10-09T06:26:41.648Z,1018.9
2017-10-09T06:27:43.084Z,1019.0
2017-10-09T06:28:44.495Z,1019.0
2017-10-09T06:29:45.894Z,1019.0
2017-10-09T06:30:47.309Z,1019.0
2017-10-09T06:31:48.715Z,1019.0
2017-10-09T06:32:50.111Z,1019.0
2017-10-09T06:33:51.519Z,1019.0
2017-10-09T06:34:52.919Z,1019.0
2017-10-09T06:35:54.316Z,1019.0
2017-10-09T06:36:55.722Z,1019.0
2017-10-09T06:37:57.122Z,1019.0
2017-10-09T06:38:58.529Z,1019.0
2017-10-09T06:39:59.934Z,1019.0
2017-10-09T06:41:01.332Z,1019.0
2017-10-09T06:42:02.743Z,1019.0
2017-10-09T06:43:04.151Z,1019.1
2017-10-09T06:44:05.590Z,1019.1
2017-10-09T06:45:06.997Z,1019.1
2017-10-09T06:46:08.427Z,1019.1
2017-10-09T06:47:09.908Z,1019.1
2017-10-09T06:48:11.304Z,1019.1
2017-10-09T06:49:12.716Z,1019.1
2017-10-09T06:50:14.118Z,1019.0
2017-10-09T06:51:15.522Z,1019.1
2017-10-09T06:52:16.928Z,1019.1
2017-10-09T06:53:18.324Z,1019.1
2017-10-09T06:54:19.728Z,1019.1
2017-10-09T06:55:21.139Z,1019.0
2017-10-09T06:56:22.543Z,1019.0
2017-10-09T06:57:23.945Z,1019.0
2017-10-09T06:58:25.342Z,1019.1
2017-10-09T06:59:26.758Z,1019.1
2017-10-09T07:00:28.154Z,1019.1
2017-10-09T07:01:29.563Z,1019.1
2017-10-09T07:02:30.974Z,1019.1
2017-10-09T07:03:32.398Z,1019.1
2017-10-09T07:04:33.801Z,1019.1
2017-10-09T07:05:35.204Z,1019.1
2017-10-09T07:06:36.611Z,1019.1
2017-10-09T07:07:38.018Z,1019.2
2017-10-09T07:08:39.423Z,1019.1
2017-10-09T07:09:40.839Z,1019.2
2017-10-09T07:10:42.244Z,1019.2
2017-10-09T07:11:43.647Z,1019.2
2017-10-09T07:12:45.053Z,1019.1
2017-10-09T07:13:46.460Z,1019.2
2017-10-09T07:14:47.862Z,1019.2
2017-10-09T07:15:49.264Z,1019.2
2017-10-09T07:16:50.675Z,1019.2
2017-10-09T07:17:52.079Z,1019.2
2017-10-09T07:18:53.485Z,1019.2
2017-10-09T07:19:54.884Z,1019.2
2017-10-09T07:20:56.282Z,1019.2
2017-10-09T07:21:57.687Z,1019.2
2017-10-09T07:22:59.098Z,1019.2
2017-10-09T07:24:00.509Z,1019.3
2017-10-09T07:25:01.911Z,1019.2
2017-10-09T07:26:03.337Z,1019.2
2017-10-09T07:27:04.785Z,1019.2
2017-10-09T07:28:06.264Z,1019.2
2017-10-09T07:29:07.723Z,1019.2
2017-10-09T07:30:09.299Z,1019.2
2017-10-09T07:31:10.758Z,1019.2
2017-10-09T07:32:12.308Z,1019.2
2017-10-09T07:33:13.848Z,1019.2
2017-10-09T07:34:15.400Z,1019.2
2017-10-09T07:35:16.946Z,1019.2
2017-10-09T07:36:18.477Z,1019.2
2017-10-09T07:37:19.989Z,1019.1
2017-10-09T07:38:21.513Z,1019.1
2017-10-09T07:39:23.080Z,1019.1
2017-10-09T07:40:24.513Z,1019.1
2017-10-09T07:41:26.078Z,1019.1
2017-10-09T07:42:27.573Z,1019.1
2017-10-09T07:43:29.078Z,1019.1
2017-10-09T07:44:30.565Z,1019.1
2017-10-09T07:45:32.031Z,1019.0
2017-10-09T07:46:33.453Z,1019.1
2017-10-09T07:47:34.899Z,1019.0
2017-10-09T07:48:36.368Z,1019.0
2017-10-09T07:49:37.863Z,1019.0
2017-10-09T07:50:39.347Z,1019.0
2017-10-09T07:51:40.834Z,1019.0
2017-10-09T07:52:42.357Z,1019.0
2017-10-09T07:53:43.837Z,1019.0
2017-10-09T07:54:45.325Z,1019.0
2017-10-09T07:55:46.834Z,1019.0
2017-10-09T07:56:48.328Z,1019.1
2017-10-09T07:57:49.789Z,1019.1
2017-10-09T07:58:51.238Z,1019.1
2017-10-09T07:59:52.672Z,1019.2
2017-10-09T08:00:54.108Z,1019.2
2017-10-09T08:01:55.561Z,1019.2
2017-10-09T08:02:57.014Z,1019.2
2017-10-09T08:03:58.458Z,1019.1
2017-10-09T08:05:00.005Z,1019.2
2017-10-09T08:06:01.477Z,1019.1
2017-10-09T08:07:02.969Z,1019.1
2017-10-09T08:08:04.431Z,1019.1
2017-10-09T08:09:05.896Z,1019.1
2017-10-09T08:10:07.400Z,1019.1
2017-10-09T08:11:08.928Z,1019.1
2017-10-09T08:12:10.415Z,1019.1
2017-10-09T08:13:11.894Z,1019.1
2017-10-09T08:14:13.390Z,1019.1
2017-10-09T08:15:14.836Z,1019.1
2017-10-09T08:16:16.364Z,1019.2
2017-10-09T08:17:17.853Z,1019.1
2017-10-09T08:18:19.356Z,1019.1
2017-10-09T08:19:20.842Z,1019.2
2017-10-09T08:20:23.213Z,1019.1
2017-10-09T08:21:24.719Z,1019.2
2017-10-09T08:22:26.238Z,1019.1
2017-10-09T08:23:27.713Z,1019.1
2017-10-09T08:24:29.247Z,1019.1
2017-10-09T08:25:30.713Z,1019.2
2017-10-09T08:26:32.204Z,1019.2
2017-10-09T08:27:33.637Z,1019.2
2017-10-09T08:28:35.064Z,1019.1
2017-10-09T08:29:36.552Z,1019.2
2017-10-09T08:30:38.022Z,1019.2
2017-10-09T08:31:39.472Z,1019.1
2017-10-09T08:32:40.893Z,1019.1
2017-10-09T08:33:42.331Z,1019.1
2017-10-09T08:34:43.760Z,1019.1
2017-10-09T08:35:45.200Z,1019.1
2017-10-09T08:36:46.634Z,1019.1
2017-10-09T08:37:48.039Z,1019.2
2017-10-09T08:38:49.486Z,1019.2
2017-10-09T08:39:50.908Z,1019.2
2017-10-09T08:40:52.320Z,1019.2
2017-10-09T08:41:53.724Z,1019.2
2017-10-09T08:42:55.141Z,1019.2
2017-10-09T08:43:56.552Z,1019.2
2017-10-09T08:44:57.951Z,1019.1
2017-10-09T08:45:59.369Z,1019.2
2017-10-09T08:47:00.773Z,1019.2
2017-10-09T08:48:02.209Z,1019.2
2017-10-09T08:49:03.627Z,1019.2
2017-10-09T08:50:05.027Z,1019.2
2017-10-09T08:51:06.443Z,1019.2
2017-10-09T08:52:07.852Z,1019.1
2017-10-09T08:53:09.334Z,1019.1
2017-10-09T08:54:10.790Z,1019.1
2017-10-09T08:55:13.225Z,1019.1
2017-10-09T08:56:14.708Z,1019.1
2017-10-09T08:57:16.198Z,1019.1
2017-10-09T08:58:17.675Z,1019.1
2017-10-09T08:59:19.112Z,1019.0
2017-10-09T09:00:20.579Z,1019.1
2017-10-09T09:01:22.008Z,1019.1
2017-10-09T09:02:23.447Z,1019.1
2017-10-09T09:03:24.903Z,1019.1
2017-10-09T09:04:26.381Z,1019.2
2017-10-09T09:05:27.846Z,1019.1
2017-10-09T09:06:29.262Z,1019.1
2017-10-09T09:07:30.730Z,1019.2
2017-10-09T09:08:32.187Z,1019.1
2017-10-09T09:09:33.669Z,1019.1
2017-10-09T09:10:35.131Z,1019.1
2017-10-09T09:11:36.634Z,1019.2
2017-10-09T09:12:38.143Z,1019.2
2017-10-09T09:13:39.637Z,1019.1
2017-10-09T09:14:41.111Z,1019.1
2017-10-09T09:15:42.605Z,1019.1
2017-10-09T09:16:44.103Z,1019.1
2017-10-09T09:17:45.572Z,1019.1
2017-10-09T09:18:47.067Z,1019.1
2017-10-09T09:19:48.529Z,1019.1
2017-10-09T09:20:49.964Z,1019.1
2017-10-09T09:21:51.393Z,1019.1
2017-10-09T09:22:52.856Z,1019.1
2017-10-09T09:23:54.368Z,1019.1
2017-10-09T09:24:55.887Z,1019.1
2017-10-09T09:25:57.375Z,1019.1
2017-10-09T09:26:58.857Z,1019.1
2017-10-09T09:28:00.354Z,1019.1
2017-10-09T09:29:01.848Z,1019.1
2017-10-09T09:30:03.347Z,1019.1
2017-10-09T09:31:04.844Z,1019.1
2017-10-09T09:32:06.339Z,1019.1
2017-10-09T09:33:07.801Z,1019.1
2017-10-09T09:34:09.272Z,1019.1
2017-10-09T09:35:10.810Z,1019.1
2017-10-09T09:36:12.253Z,1019.1
2017-10-09T09:37:13.722Z,1019.2
2017-10-09T09:38:15.163Z,1019.2
2017-10-09T09:39:16.688Z,1019.2
2017-10-09T09:40:18.154Z,1019.1
2017-10-09T09:41:19.664Z,1019.2
2017-10-09T09:42:21.181Z,1019.1
2017-10-09T09:43:22.670Z,1019.1
2017-10-09T09:44:24.139Z,1019.1
2017-10-09T09:45:25.639Z,1019.1
2017-10-09T09:46:27.118Z,1019.1
2017-10-09T09:47:28.583Z,1019.1
2017-10-09T09:48:30.076Z,1019.1
2017-10-09T09:49:31.574Z,1019.1
2017-10-09T09:50:33.044Z,1019.1
2017-10-09T09:51:34.575Z,1019.1
2017-10-09T09:52:36.049Z,1019.1
2017-10-09T09:53:37.544Z,1019.1
2017-10-09T09:54:39.034Z,1019.1
2017-10-09T09:55:40.554Z,1019.1
2017-10-09T09:56:42.044Z,1019.1
2017-10-09T09:57:43.547Z,1019.1
2017-10-09T09:58:45.060Z,1019.1
2017-10-09T09:59:46.536Z,1019.1
2017-10-09T10:00:48.041Z,1019.1
2017-10-09T10:01:49.512Z,1019.1
2017-10-09T10:02:51.018Z,1019.1
2017-10-09T10:03:52.498Z,1019.1
2017-10-09T10:04:53.985Z,1019.1
2017-10-09T10:05:55.461Z,1019.0
2017-10-09T10:06:56.920Z,1019.1
2017-10-09T10:07:58.434Z,1019.0
2017-10-09T10:08:59.932Z,1019.0
2017-10-09T10:10:01.430Z,1019.1
2017-10-09T10:11:02.893Z,1019.0
2017-10-09T10:12:04.396Z,1019.0
2017-10-09T10:13:05.882Z,1019.0
2017-10-09T10:14:07.339Z,1019.0
2017-10-09T10:15:08.853Z,1019.0
2017-10-09T10:16:10.343Z,1019.0
2017-10-09T10:17:11.822Z,1019.0
2017-10-09T10:18:13.316Z,1019.1
2017-10-09T10:19:14.838Z,1019.0
2017-10-09T10:20:16.343Z,1019.0
2017-10-09T10:21:17.822Z,1019.0
2017-10-09T10:22:19.303Z,1019.0
2017-10-09T10:23:20.789Z,1019.0
2017-10-09T10:24:22.285Z,1019.0
2017-10-09T10:25:23.767Z,1019.0
2017-10-09T10:26:25.235Z,1019.0
2017-10-09T10:27:26.710Z,1019.0
2017-10-09T10:28:28.214Z,1019.0
2017-10-09T10:29:29.712Z,1019.0
2017-10-09T10:30:31.184Z,1019.0
2017-10-09T10:31:32.662Z,1019.0
2017-10-09T10:32:34.164Z,1018.9
2017-10-09T10:33:35.686Z,1019.0
2017-10-09T10:34:37.208Z,1018.9
2017-10-09T10:35:38.710Z,1018.9
2017-10-09T10:36:40.179Z,1018.9
2017-10-09T10:37:41.665Z,1018.9
2017-10-09T10:38:43.157Z,1018.9
2017-10-09T10:39:44.617Z,1018.9
2017-10-09T10:40:46.101Z,1018.9
2017-10-09T10:41:47.599Z,1018.9
2017-10-09T10:42:49.056Z,1018.9
2017-10-09T10:43:50.517Z,1018.9
2017-10-09T10:44:51.958Z,1018.9
2017-10-09T10:45:53.379Z,1018.9
2017-10-09T10:46:54.830Z,1018.9
2017-10-09T10:47:56.269Z,1018.8
2017-10-09T10:48:57.796Z,1018.8
2017-10-09T10:49:59.326Z,1018.8
2017-10-09T10:51:00.809Z,1018.8
2017-10-09T10:52:02.323Z,1018.8
2017-10-09T10:53:03.807Z,1018.8
2017-10-09T10:54:06.403Z,1018.8
2017-10-09T10:55:07.918Z,1018.8
2017-10-09T10:56:09.420Z,1018.8
2017-10-09T10:57:10.917Z,1018.8
2017-10-09T10:58:12.411Z,1018.8
2017-10-09T10:59:14.616Z,1018.8
2017-10-09T11:00:16.129Z,1018.7
2017-10-09T11:01:17.632Z,1018.8
2017-10-09T11:02:19.131Z,1018.8
2017-10-09T11:03:27.273Z,1018.7
2017-10-09T11:04:28.462Z,1018.8
2017-10-09T11:05:30.058Z,1018.7
2017-10-09T11:06:31.581Z,1018.7
2017-10-09T11:07:33.040Z,1018.7
2017-10-09T11:08:34.589Z,1018.7
2017-10-09T11:09:36.162Z,1018.7
2017-10-09T11:10:37.648Z,1018.7
2017-10-09T11:11:39.118Z,1018.6
2017-10-09T11:12:40.767Z,1018.6
2017-10-09T11:13:42.310Z,1018.6
2017-10-09T11:14:43.867Z,1018.6
2017-10-09T11:15:45.744Z,1018.6
2017-10-09T11:16:47.850Z,1018.6
2017-10-09T11:17:49.925Z,1018.5
2017-10-09T11:18:51.528Z,1018.6
2017-10-09T11:19:53.057Z,1018.6
2017-10-09T11:20:54.719Z,1018.6
2017-10-09T11:21:56.267Z,1018.6
2017-10-09T11:22:57.849Z,1018.6
2017-10-09T11:23:59.430Z,1018.6
2017-10-09T11:25:00.968Z,1018.5
2017-10-09T11:26:02.505Z,1018.5
2017-10-09T11:27:04.040Z,1018.5
2017-10-09T11:28:06.357Z,1018.4
2017-10-09T11:29:07.967Z,1018.5
2017-10-09T11:30:09.421Z,1018.4
2017-10-09T11:31:10.981Z,1018.4
2017-10-09T11:32:12.525Z,1018.5
2017-10-09T11:33:14.059Z,1018.4
2017-10-09T11:34:15.724Z,1018.4
2017-10-09T11:35:17.291Z,1018.4
2017-10-09T11:36:18.845Z,1018.4
2017-10-09T11:37:20.448Z,1018.5
2017-10-09T11:38:22.067Z,1018.4
2017-10-09T11:39:23.641Z,1018.4
2017-10-09T11:40:25.196Z,1018.4
2017-10-09T11:41:26.771Z,1018.4
2017-10-09T11:42:28.347Z,1018.3
2017-10-09T11:43:29.935Z,1018.3
2017-10-09T11:44:31.450Z,1018.4
2017-10-09T11:45:32.987Z,1018.3
2017-10-09T11:46:34.530Z,1018.3
2017-10-09T11:47:36.066Z,1018.3
2017-10-09T11:48:37.622Z,1018.3
2017-10-09T11:49:39.149Z,1018.3
2017-10-09T11:50:40.660Z,1018.3
2017-10-09T11:51:42.259Z,1018.3
2017-10-09T11:52:43.825Z,1018.3
2017-10-09T11:53:45.389Z,1018.3
2017-10-09T11:54:46.960Z,1018.3
2017-10-09T11:55:48.477Z,1018.3
2017-10-09T11:56:50.023Z,1018.3
2017-10-09T11:57:51.558Z,1018.3
2017-10-09T11:58:53.117Z,1018.3
2017-10-09T11:59:54.647Z,1018.3
2017-10-09T12:00:56.187Z,1018.3
2017-10-09T12:01:57.759Z,1018.3
2017-10-09T12:02:59.293Z,1018.3
2017-10-09T12:04:00.820Z,1018.3
2017-10-09T12:05:02.338Z,1018.2
2017-10-09T12:06:03.871Z,1018.2
2017-10-09T12:07:05.439Z,1018.2
2017-10-09T12:08:06.947Z,1018.2
2017-10-09T12:09:08.489Z,1018.2
2017-10-09T12:10:10.004Z,1018.2
2017-10-09T12:11:11.515Z,1018.1
2017-10-09T12:12:13.060Z,1018.1
2017-10-09T12:13:14.611Z,1018.1
2017-10-09T12:14:16.111Z,1018.1
2017-10-09T12:15:17.670Z,1018.1
2017-10-09T12:16:19.262Z,1018.0
2017-10-09T12:17:20.817Z,1018.1
2017-10-09T12:18:22.353Z,1018.0
2017-10-09T12:19:23.841Z,1018.0
2017-10-09T12:20:25.404Z,1018.1
2017-10-09T12:21:26.970Z,1018.0
2017-10-09T12:22:28.512Z,1018.0
2017-10-09T12:23:30.165Z,1018.0
2017-10-09T12:24:31.767Z,1018.0
2017-10-09T12:25:33.316Z,1018.0
2017-10-09T12:26:34.900Z,1018.0
2017-10-09T12:27:36.532Z,1018.0
2017-10-09T12:28:38.124Z,1018.0
2017-10-09T12:29:39.681Z,1017.9
2017-10-09T12:30:41.293Z,1018.0
2017-10-09T12:31:42.849Z,1017.9
2017-10-09T12:32:44.451Z,1017.9
2017-10-09T12:33:46.011Z,1017.9
2017-10-09T12:34:47.570Z,1017.9
2017-10-09T12:35:49.133Z,1017.9
2017-10-09T12:36:50.662Z,1017.9
2017-10-09T12:37:52.450Z,1017.8
2017-10-09T12:38:53.947Z,1017.8
2017-10-09T12:39:55.500Z,1017.9
2017-10-09T12:40:57.024Z,1017.8
2017-10-09T12:41:58.614Z,1017.8
2017-10-09T12:43:00.173Z,1017.8
2017-10-09T12:44:01.788Z,1017.8
2017-10-09T12:45:03.378Z,1017.8
2017-10-09T12:46:04.949Z,1017.8
2017-10-09T12:47:06.491Z,1017.8
2017-10-09T12:48:08.029Z,1017.8
2017-10-09T12:49:09.647Z,1017.8